Terminal Aerodrome Forecast
Issued by NWS

Home | Current Version | Previous Version | Text Only | Print | Product List | Glossary On
Versions: 1 2 3 4 5 6 7 8 9 10 11 12 13 14
000
FTUS44 KSJT 191231 AAA
TAFJCT
TAF AMD
KJCT 191231Z 1913/2012 17003KT P6SM SCT011
      TEMPO 1913/1915 BKN009
     FM191700 17010KT P6SM BKN250
     FM200000 14006KT P6SM SCT050 BKN250
     FM200700 15005KT P6SM BKN015=

USA.gov is the U.S. government's official web portal to all federal, state and local government web resources and services.